Gateway, Arkansas
Current Conditions -  °F | °C
As of 11:57 AM on Friday 24 Oct 2014 (Local Time) from KROG Reporting Station
Clear Clear  
Wind Chill: 20°   Ceiling: Unl
Heat Index: 20°   Visibility: 10mi
Dew Point: 14°   Wind: 10mph
Humidity: 68%   Direction: 220°SW
Pressure: 30.16"   Gusts: NA
Location:  36.49°N, 93.93°W
Report Text: KROG 241657Z 22009KT 10SM CLR 20/14 A3016 RMK AO2 SLP206 T02000139
Loading
Personal Weather Stations






























Interactive Weather Map
Tropical Storm Tracking
New forecast layout! Learn more

10-Day Weather Forecast

Advertisements
Track Severe Weather on mobile